Time;durP1;ratioP1;P1;durP2;ratioP2;P2;SDS_P1;SDS_P2;PMS_P1;PMS_P2;Temp;Humidity;BMP_temperature;BMP_pressure;BME280_temperature;BME280_humidity;BME280_pressure;Samples;Min_cycle;Max_cycle;Signal;HPM_P1;HPM_P2
2021/01/01 00:01:42;;;;;;;29.05;17.67;;;;;;;5.39;73.37;98710.50;6155369;23;20022;-85
2021/01/01 00:04:09;;;;;;;23.55;14.32;;;;;;;5.36;73.38;98705.44;6154491;23;20025;-85
2021/01/01 00:06:36;;;;;;;24.17;14.82;;;;;;;5.34;73.08;98704.66;6156856;23;20021;-85
2021/01/01 00:09:06;;;;;;;26.65;15.65;;;;;;;5.29;73.15;98710.13;6156323;23;20457;-85
2021/01/01 00:11:33;;;;;;;27.25;16.45;;;;;;;5.27;73.17;98713.75;6156384;23;20032;-85
2021/01/01 00:13:59;;;;;;;29.15;17.50;;;;;;;5.21;73.19;98713.13;6155971;23;20025;-85
2021/01/01 00:16:26;;;;;;;27.40;16.20;;;;;;;5.18;73.09;98709.84;6155124;23;20022;-85
2021/01/01 00:18:52;;;;;;;26.33;15.13;;;;;;;5.15;73.17;98708.25;6154986;23;20457;-85
2021/01/01 00:21:18;;;;;;;26.17;16.45;;;;;;;5.11;73.45;98708.47;6156657;23;20021;-85
2021/01/01 00:23:45;;;;;;;24.98;16.13;;;;;;;5.08;73.13;98714.69;6155924;23;20494;-84
2021/01/01 00:26:16;;;;;;;27.88;16.92;;;;;;;5.03;73.21;98714.94;6156134;23;20028;-84
2021/01/01 00:28:43;;;;;;;30.75;17.55;;;;;;;5.01;73.59;98714.16;6154806;23;20483;-84
2021/01/01 00:31:17;;;;;;;28.38;18.45;;;;;;;4.94;73.32;98725.84;6156890;23;20026;-84
2021/01/01 00:33:44;;;;;;;30.30;18.17;;;;;;;4.94;73.42;98723.22;6154672;23;20030;-84
2021/01/01 00:36:12;;;;;;;31.15;19.60;;;;;;;4.91;73.69;98718.16;6154616;23;20021;-85
2021/01/01 00:38:39;;;;;;;34.50;20.88;;;;;;;4.87;73.80;98725.31;6156520;23;20029;-84
2021/01/01 00:41:06;;;;;;;39.75;22.23;;;;;;;4.86;73.98;98717.56;6154937;23;20022;-85
2021/01/01 00:43:33;;;;;;;35.88;20.48;;;;;;;4.83;74.05;98722.00;6155730;23;20583;-85
2021/01/01 00:46:00;;;;;;;35.25;22.58;;;;;;;4.82;74.11;98719.44;6156018;23;20527;-85
2021/01/01 00:48:26;;;;;;;37.65;21.92;;;;;;;4.81;74.14;98721.25;6156028;23;20455;-84
2021/01/01 00:50:52;;;;;;;38.35;23.20;;;;;;;4.80;74.40;98722.16;6154976;23;20021;-84
2021/01/01 00:53:18;;;;;;;41.67;23.55;;;;;;;4.81;74.24;98716.03;6154750;23;20121;-84
2021/01/01 00:55:45;;;;;;;47.45;25.58;;;;;;;4.79;74.18;98722.25;6156024;23;20064;-84
2021/01/01 00:58:11;;;;;;;43.72;25.60;;;;;;;4.80;74.67;98718.69;6156635;23;20021;-84
2021/01/01 01:00:37;;;;;;;43.13;25.00;;;;;;;4.81;74.43;98715.16;6155320;23;20030;-84
2021/01/01 01:03:04;;;;;;;42.08;24.00;;;;;;;4.79;74.24;98712.63;6155749;23;20499;-84
2021/01/01 01:05:30;;;;;;;39.53;23.48;;;;;;;4.80;74.25;98716.09;6179862;23;20020;-84
2021/01/01 01:07:56;;;;;;;38.17;22.98;;;;;;;4.77;74.18;98711.88;6185968;23;20017;-84
2021/01/01 01:10:22;;;;;;;39.92;23.42;;;;;;;4.77;74.13;98718.84;6185942;23;20028;-84
2021/01/01 01:12:48;;;;;;;41.15;24.95;;;;;;;4.74;74.11;98714.63;6185886;23;20021;-84
2021/01/01 01:15:14;;;;;;;48.22;26.63;;;;;;;4.73;73.81;98725.97;6185514;23;20048;-84
2021/01/01 01:17:41;;;;;;;46.88;27.75;;;;;;;4.71;73.98;98719.16;6185898;23;20027;-84
2021/01/01 01:20:09;;;;;;;40.35;24.75;;;;;;;4.66;73.74;98721.97;6185661;23;20475;-84
2021/01/01 01:22:35;;;;;;;38.38;22.33;;;;;;;4.62;73.47;98726.50;6185711;23;20021;-84
2021/01/01 01:25:03;;;;;;;33.88;20.27;;;;;;;4.58;73.59;98732.78;6185629;23;20028;-84
2021/01/01 01:27:29;;;;;;;33.00;19.10;;;;;;;4.53;73.63;98733.00;6186296;23;20017;-84
2021/01/01 01:29:55;;;;;;;31.80;18.63;;;;;;;4.50;73.73;98735.78;6185529;23;20025;-84
2021/01/01 01:32:22;;;;;;;30.88;18.25;;;;;;;4.47;74.05;98735.06;6185324;23;20032;-84
2021/01/01 01:42:24;;;;;;;32.20;18.70;;;;;;;4.30;73.57;98741.97;6188625;23;20055;-85
2021/01/01 01:50:02;;;;;;;33.03;16.03;;;;;;;4.21;73.55;98748.44;5925570;23;20027;-87
2021/01/01 01:56:04;;;;;;;40.58;21.83;;;;;;;4.13;73.74;98741.00;6189478;23;20021;-87
2021/01/01 01:58:51;;;;;;;47.90;25.67;;;;;;;4.11;73.79;98750.63;6166701;23;20045;-86
2021/01/01 02:01:26;;;;;;;50.90;28.35;;;;;;;4.09;73.90;98749.84;6164525;23;20021;-87
2021/01/01 02:04:01;;;;;;;52.72;28.67;;;;;;;4.06;73.98;98751.75;6164908;23;20021;-86
2021/01/01 02:06:33;;;;;;;52.72;30.38;;;;;;;4.02;74.27;98756.25;6165141;23;20028;-85
2021/01/01 02:09:04;;;;;;;59.65;33.65;;;;;;;3.98;74.03;98765.97;6165442;23;20016;-87
2021/01/01 02:11:49;;;;;;;58.22;32.78;;;;;;;3.94;73.96;98767.03;6166510;23;20388;-87
2021/01/01 02:14:30;;;;;;;57.42;30.70;;;;;;;3.94;74.69;98769.63;6167232;23;20072;-87
2021/01/01 02:17:05;;;;;;;58.50;32.55;;;;;;;3.93;74.53;98770.56;6165488;23;20017;-85
2021/01/01 02:19:34;;;;;;;63.42;34.53;;;;;;;3.89;74.54;98767.22;6166615;23;20379;-87
2021/01/01 02:22:12;;;;;;;65.68;35.25;;;;;;;3.85;74.76;98764.84;6164338;23;20096;-86
2021/01/01 02:24:43;;;;;;;59.92;34.22;;;;;;;3.85;74.76;98768.28;6165110;23;20071;-87
2021/01/01 02:27:14;;;;;;;60.60;32.35;;;;;;;3.82;74.85;98773.66;6165141;23;20017;-86
2021/01/01 02:29:41;;;;;;;58.88;31.17;;;;;;;3.82;75.15;98771.03;6168216;23;20047;-87
2021/01/01 02:32:07;;;;;;;62.85;33.50;;;;;;;3.81;74.75;98771.94;6164838;23;20025;-87
2021/01/01 02:34:39;;;;;;;56.45;32.25;;;;;;;3.78;74.49;98766.88;6166418;23;20043;-87
2021/01/01 02:37:09;;;;;;;56.92;30.70;;;;;;;3.76;74.61;98771.31;6164246;23;20017;-87
2021/01/01 02:40:05;;;;;;;56.25;30.13;;;;;;;3.73;74.76;98776.63;6162870;23;20025;-87
2021/01/01 02:42:38;;;;;;;55.88;30.10;;;;;;;3.74;74.86;98767.94;6164897;23;20025;-86
2021/01/01 02:45:14;;;;;;;57.75;31.52;;;;;;;3.73;74.66;98780.09;6162229;23;20017;-88
2021/01/01 02:47:41;;;;;;;55.67;31.30;;;;;;;3.75;75.04;98769.63;6164301;23;20092;-86
2021/01/01 02:50:19;;;;;;;59.70;32.13;;;;;;;3.72;74.94;98773.22;6167701;23;20021;-87
2021/01/01 02:52:50;;;;;;;57.80;31.13;;;;;;;3.74;75.74;98776.56;6165272;23;20391;-87
2021/01/01 02:55:18;;;;;;;67.30;34.08;;;;;;;3.74;75.51;98773.97;6167316;23;20444;-87
2021/01/01 02:57:55;;;;;;;55.78;32.25;;;;;;;3.76;75.58;98764.34;6193986;23;20383;-87
2021/01/01 03:00:25;;;;;;;61.00;34.33;;;;;;;3.77;75.68;98765.19;6166462;23;20021;-87
2021/01/01 03:02:54;;;;;;;66.18;36.15;;;;;;;3.81;76.02;98766.72;6163000;23;20452;-88
2021/01/01 03:05:40;;;;;;;67.70;35.63;;;;;;;3.82;75.73;98770.19;6165717;23;20021;-88
2021/01/01 03:08:13;;;;;;;66.07;35.13;;;;;;;3.84;75.77;98760.53;6165244;23;20344;-87
2021/01/01 03:10:42;;;;;;;71.40;36.47;;;;;;;3.84;75.80;98756.19;6163087;23;20075;-87
2021/01/01 03:13:11;;;;;;;77.22;37.47;;;;;;;3.87;75.54;98763.00;6166853;23;20027;-87
2021/01/01 03:15:46;;;;;;;64.25;36.35;;;;;;;3.90;75.70;98765.47;6167458;23;20028;-86
2021/01/01 03:18:20;;;;;;;67.93;36.83;;;;;;;3.91;75.67;98765.41;6164560;23;20037;-86
2021/01/01 03:21:22;;;;;;;70.00;36.45;;;;;;;3.91;75.39;98761.97;6190781;23;20023;-86
2021/01/01 03:23:56;;;;;;;72.45;38.03;;;;;;;3.98;75.39;98765.13;6165326;23;20024;-86
2021/01/01 03:26:36;;;;;;;69.90;35.83;;;;;;;4.00;75.34;98765.91;6166177;23;20088;-87
2021/01/01 03:29:10;;;;;;;67.40;36.05;;;;;;;3.98;75.07;98768.59;6164953;23;20028;-86
2021/01/01 03:31:40;;;;;;;74.40;38.35;;;;;;;3.98;74.88;98763.38;6164187;23;20021;-86
2021/01/01 03:34:10;;;;;;;67.40;37.88;;;;;;;3.96;74.73;98757.38;6164117;23;20020;-86
2021/01/01 03:36:41;;;;;;;67.68;35.20;;;;;;;3.95;75.11;98763.50;6165002;23;20092;-87
2021/01/01 03:39:10;;;;;;;57.70;32.53;;;;;;;3.95;75.02;98760.06;6191575;23;20028;-85
2021/01/01 03:41:39;;;;;;;61.65;33.35;;;;;;;3.94;74.91;98755.75;6189832;23;20032;-87
2021/01/01 03:44:13;;;;;;;62.15;33.97;;;;;;;3.91;74.75;98761.97;6162627;23;20027;-86
2021/01/01 03:46:43;;;;;;;58.60;32.67;;;;;;;3.92;74.63;98763.63;6163518;23;20013;-86
2021/01/01 03:49:14;;;;;;;66.00;34.25;;;;;;;3.89;74.71;98759.41;6163521;23;20028;-86
2021/01/01 03:51:54;;;;;;;71.35;37.38;;;;;;;3.86;74.89;98758.72;6166084;23;20029;-85
2021/01/01 03:54:22;;;;;;;73.20;39.95;;;;;;;3.84;75.10;98757.94;6165048;23;20025;-87
2021/01/01 03:57:00;;;;;;;79.22;42.83;;;;;;;3.82;74.97;98762.38;6164670;23;20092;-86
2021/01/01 03:59:28;;;;;;;88.28;45.30;;;;;;;3.76;74.99;98764.34;6163292;23;20052;-87
2021/01/01 04:01:55;;;;;;;94.30;46.60;;;;;;;3.75;75.34;98761.81;6164639;23;20017;-87
2021/01/01 04:04:24;;;;;;;85.57;45.30;;;;;;;3.72;74.99;98765.41;6188598;23;20071;-87
2021/01/01 04:06:50;;;;;;;87.25;45.25;;;;;;;3.71;75.38;98763.72;6163102;23;20444;-86
2021/01/01 04:09:17;;;;;;;90.72;46.10;;;;;;;3.69;75.08;98757.72;6163242;23;20060;-87
2021/01/01 04:11:48;;;;;;;84.18;43.05;;;;;;;3.67;75.55;98754.34;6162864;23;20111;-86
2021/01/01 04:14:15;;;;;;;93.53;45.75;;;;;;;3.69;75.55;98762.06;6162395;23;20024;-85
2021/01/01 04:16:46;;;;;;;86.63;43.80;;;;;;;3.66;75.32;98755.25;6163700;23;20044;-85
2021/01/01 04:19:22;;;;;;;89.88;46.17;;;;;;;3.65;75.51;98762.22;6164539;23;20071;-87
2021/01/01 04:21:56;;;;;;;78.22;41.67;;;;;;;3.65;75.39;98757.03;6164075;23;20499;-86
2021/01/01 04:24:31;;;;;;;89.82;45.30;;;;;;;3.65;74.94;98756.16;6164905;23;20021;-86
2021/01/01 04:27:04;;;;;;;94.85;47.25;;;;;;;3.65;75.34;98767.44;6165454;23;20040;-87
2021/01/01 04:29:35;;;;;;;94.60;46.83;;;;;;;3.66;75.06;98765.66;6166275;23;20017;-86
2021/01/01 04:32:12;;;;;;;86.00;45.08;;;;;;;3.63;75.03;98763.22;6165004;23;20351;-85
2021/01/01 04:34:55;;;;;;;98.22;47.00;;;;;;;3.62;75.25;98777.97;6167594;23;20506;-87
2021/01/01 04:37:31;;;;;;;96.82;49.65;;;;;;;3.63;75.14;98773.63;6166934;23;20017;-87
2021/01/01 04:40:36;;;;;;;95.50;50.08;;;;;;;3.58;75.34;98770.34;6166107;23;20017;-88
2021/01/01 04:43:10;;;;;;;104.15;50.33;;;;;;;3.60;75.25;98774.59;6165735;23;20021;-87
2021/01/01 04:45:56;;;;;;;95.95;50.65;;;;;;;3.55;74.91;98776.53;6164589;23;20017;-86
2021/01/01 04:48:26;;;;;;;102.72;49.70;;;;;;;3.55;75.16;98773.94;6163057;23;20021;-87
2021/01/01 04:51:18;;;;;;;107.43;50.13;;;;;;;3.54;75.29;98781.84;6163668;23;20073;-86
2021/01/01 04:54:04;;;;;;;94.63;48.95;;;;;;;3.52;75.37;98777.53;6164386;23;20075;-87
2021/01/01 04:56:59;;;;;;;90.35;46.80;;;;;;;3.50;75.25;98781.09;6164999;23;20404;-87
2021/01/01 05:00:02;;;;;;;96.95;48.05;;;;;;;3.50;75.43;98784.56;6165494;23;20023;-86
2021/01/01 05:02:33;;;;;;;88.40;44.33;;;;;;;3.48;75.09;98783.78;6163775;23;20040;-87
2021/01/01 05:05:09;;;;;;;92.43;46.50;;;;;;;3.48;75.02;98783.78;6163430;23;20399;-85
2021/01/01 05:07:47;;;;;;;92.15;47.85;;;;;;;3.46;75.51;98783.00;6161404;23;20013;-85
2021/01/01 05:10:36;;;;;;;93.20;46.10;;;;;;;3.43;75.16;98790.13;6165688;23;20056;-86
2021/01/01 05:13:23;;;;;;;93.90;43.72;;;;;;;3.39;75.25;98791.97;6163532;23;20017;-86
2021/01/01 05:16:19;;;;;;;68.07;36.13;;;;;;;3.37;74.98;98788.63;6163500;23;20092;-85
2021/01/01 05:18:55;;;;;;;74.20;36.42;;;;;;;3.37;74.82;98788.63;6166093;23;20016;-86
2021/01/01 05:21:31;;;;;;;74.43;37.10;;;;;;;3.36;75.45;98787.75;6192139;23;20020;-87
2021/01/01 05:23:59;;;;;;;74.05;38.00;;;;;;;3.39;75.76;98794.59;6162905;23;20035;-87
2021/01/01 05:26:52;;;;;;;67.78;34.90;;;;;;;3.37;75.65;98789.44;6165504;23;20044;-86
2021/01/01 05:29:27;;;;;;;61.88;31.00;;;;;;;3.39;75.42;98791.97;6161425;23;20021;-86
2021/01/01 05:31:54;;;;;;;59.20;30.30;;;;;;;3.43;75.74;98795.31;6163082;23;20021;-85
2021/01/01 05:34:47;;;;;;;54.20;27.65;;;;;;;3.41;75.21;98792.78;6163433;23;20080;-86
2021/01/01 05:37:32;;;;;;;63.45;33.17;;;;;;;3.43;75.14;98796.16;6166993;23;20448;-86
2021/01/01 05:40:16;;;;;;;62.60;32.92;;;;;;;3.46;75.38;98797.75;6167248;23;20037;-87
2021/01/01 05:42:49;;;;;;;71.53;36.15;;;;;;;3.48;75.22;98801.97;6165569;23;20017;-86
2021/01/01 05:45:26;;;;;;;70.10;35.75;;;;;;;3.46;74.85;98802.97;6165895;23;20045;-87
2021/01/01 05:48:08;;;;;;;64.22;33.40;;;;;;;3.43;74.89;98798.75;6165807;23;20088;-87
2021/01/01 05:50:45;;;;;;;44.85;23.23;;;;;;;3.46;75.71;98805.56;6170863;23;20052;-87
2021/01/01 05:53:19;;;;;;;75.68;37.80;;;;;;;3.47;75.73;98799.44;6162954;23;20518;-86
2021/01/01 05:55:47;;;;;;;71.85;36.10;;;;;;;3.47;75.74;98805.50;6164985;23;20019;-86
2021/01/01 05:58:18;;;;;;;69.07;36.35;;;;;;;3.46;75.02;98811.63;6163894;23;20021;-85
2021/01/01 06:00:49;;;;;;;73.25;37.42;;;;;;;3.45;74.91;98815.16;6167504;23;20040;-87
2021/01/01 06:03:27;;;;;;;65.55;34.40;;;;;;;3.47;75.16;98818.50;6171296;23;20051;-87
2021/01/01 06:05:55;;;;;;;67.95;34.42;;;;;;;3.46;75.17;98822.03;6191510;23;20079;-86
2021/01/01 06:08:29;;;;;;;63.30;33.35;;;;;;;3.44;75.23;98820.41;6163080;23;20021;-85
2021/01/01 06:11:08;;;;;;;64.00;34.42;;;;;;;3.41;74.97;98820.53;6162932;23;20084;-85
2021/01/01 06:13:36;;;;;;;64.72;33.55;;;;;;;3.44;75.39;98826.44;6167987;23;20391;-87
2021/01/01 06:16:04;;;;;;;61.25;32.55;;;;;;;3.44;75.67;98823.84;6193212;23;20021;-87
2021/01/01 06:18:35;;;;;;;57.70;31.40;;;;;;;3.43;75.65;98837.78;6193305;23;20021;-86
2021/01/01 06:21:10;;;;;;;55.35;30.67;;;;;;;3.43;75.81;98829.97;6191160;23;20356;-87
2021/01/01 06:23:40;;;;;;;59.15;32.03;;;;;;;3.47;76.18;98835.88;6189503;23;20017;-87
2021/01/01 06:26:11;;;;;;;64.28;33.47;;;;;;;3.49;76.37;98831.47;6168257;23;20017;-86
2021/01/01 06:28:59;;;;;;;61.25;33.95;;;;;;;3.50;75.97;98835.75;6164182;23;20013;-87
2021/01/01 06:31:26;;;;;;;59.45;33.05;;;;;;;3.56;76.33;98845.06;6167407;23;20409;-87
2021/01/01 06:34:15;;;;;;;62.78;35.60;;;;;;;3.56;75.33;98838.09;6189512;23;20023;-85
2021/01/01 06:36:49;;;;;;;63.00;36.15;;;;;;;3.59;75.80;98848.34;6163835;23;20103;-87
2021/01/01 06:39:37;;;;;;;65.38;34.97;;;;;;;3.58;74.79;98848.41;6165370;23;20040;-87
2021/01/01 06:42:04;;;;;;;56.92;32.38;;;;;;;3.61;75.61;98856.97;6164718;23;20017;-86
2021/01/01 06:44:35;;;;;;;64.00;36.03;;;;;;;3.61;75.48;98861.31;6189961;23;20068;-87
2021/01/01 06:47:03;;;;;;;65.68;37.20;;;;;;;3.61;75.71;98862.16;6165217;23;20068;-85
2021/01/01 06:49:37;;;;;;;67.18;37.22;;;;;;;3.60;75.25;98860.47;6163030;23;20025;-86
2021/01/01 06:52:17;;;;;;;70.10;38.63;;;;;;;3.61;75.08;98869.13;6169305;23;20021;-87
2021/01/01 06:54:58;;;;;;;63.92;36.75;;;;;;;3.59;74.86;98868.34;6190159;23;20504;-87
2021/01/01 06:57:29;;;;;;;54.90;30.60;;;;;;;3.61;75.39;98871.72;6189668;23;20021;-87
2021/01/01 06:59:58;;;;;;;61.35;30.98;;;;;;;3.63;76.26;98877.72;6165346;23;20499;-85
2021/01/01 07:02:31;;;;;;;54.67;30.92;;;;;;;3.64;75.99;98882.00;6164934;23;20017;-86
2021/01/01 07:05:07;;;;;;;50.28;27.98;;;;;;;3.64;75.81;98876.81;6164765;23;20043;-87
2021/01/01 07:07:42;;;;;;;44.17;24.98;;;;;;;3.68;76.10;98882.72;6189508;23;20099;-85
2021/01/01 07:10:14;;;;;;;49.05;27.02;;;;;;;3.71;75.97;98880.00;6190070;23;20021;-85
2021/01/01 07:12:44;;;;;;;49.58;27.67;;;;;;;3.75;76.37;98884.16;6163307;23;20352;-87
2021/01/01 07:15:36;;;;;;;51.60;30.23;;;;;;;3.77;76.00;98883.16;6169969;23;20099;-85
2021/01/01 07:18:10;;;;;;;59.70;33.60;;;;;;;3.80;75.83;98889.16;6167420;23;20017;-85
2021/01/01 07:20:44;;;;;;;54.75;31.08;;;;;;;3.81;75.78;98890.84;6165040;23;20029;-85
2021/01/01 07:23:16;;;;;;;54.08;31.35;;;;;;;3.81;75.14;98888.25;6164181;23;20095;-87
2021/01/01 07:26:27;;;;;;;53.35;30.13;;;;;;;3.82;75.21;98893.41;6164218;23;20021;-86
2021/01/01 07:29:22;;;;;;;50.38;27.75;;;;;;;3.86;75.64;98894.97;6164228;23;20017;-87
2021/01/01 07:32:00;;;;;;;50.00;27.83;;;;;;;3.87;74.74;98896.66;6164912;23;20083;-86
2021/01/01 07:34:29;;;;;;;49.85;27.98;;;;;;;3.89;75.17;98901.78;6190704;23;20043;-85
2021/01/01 07:37:00;;;;;;;40.22;22.65;;;;;;;3.88;74.87;98897.47;6189278;23;20023;-85
2021/01/01 07:43:12;;;;;;;36.28;19.50;;;;;;;3.90;74.56;98901.69;6095173;23;20069;-85
2021/01/01 07:46:28;;;;;;;35.00;18.38;;;;;;;3.94;73.95;98896.38;6071419;23;20109;-84
2021/01/01 07:52:30;;;;;;;30.25;14.85;;;;;;;4.04;75.65;98902.88;6066218;23;20023;-84
2021/01/01 07:55:02;;;;;;;33.63;16.10;;;;;;;4.04;74.81;98906.31;6066285;23;20023;-84
2021/01/01 07:57:36;;;;;;;35.97;20.00;;;;;;;4.11;75.95;98901.69;6066551;23;20035;-84
2021/01/01 08:00:04;;;;;;;37.05;21.08;;;;;;;4.13;75.46;98897.25;6066565;23;20034;-84
2021/01/01 08:02:31;;;;;;;44.17;22.77;;;;;;;4.17;75.58;98904.03;6066283;23;20034;-84
2021/01/01 08:04:59;;;;;;;49.78;24.75;;;;;;;4.18;75.39;98899.66;6066541;23;20027;-84
2021/01/01 08:07:26;;;;;;;44.80;24.30;;;;;;;4.20;75.34;98903.03;6066518;23;20023;-84
2021/01/01 08:09:52;;;;;;;42.90;23.90;;;;;;;4.19;75.33;98903.97;6066337;23;20034;-84
2021/01/01 08:12:18;;;;;;;51.70;28.52;;;;;;;4.19;74.91;98908.31;6066364;23;20042;-84
2021/01/01 08:14:48;;;;;;;55.25;30.00;;;;;;;4.15;74.26;98899.81;6066352;23;20027;-84
2021/01/01 08:17:22;;;;;;;54.85;30.55;;;;;;;4.12;74.05;98910.34;6066276;23;20034;-83
2021/01/01 08:19:48;;;;;;;53.95;30.55;;;;;;;4.09;74.73;98907.88;6105219;23;20030;-84
2021/01/01 08:22:21;;;;;;;51.03;30.20;;;;;;;4.04;74.33;98908.09;6127195;23;20397;-84
2021/01/01 08:24:52;;;;;;;47.60;28.75;;;;;;;4.02;75.04;98913.38;6126851;23;20037;-84
2021/01/01 08:27:21;;;;;;;47.00;26.42;;;;;;;4.01;75.47;98908.22;6125745;23;20081;-84
2021/01/01 08:29:50;;;;;;;46.30;26.00;;;;;;;4.02;75.75;98907.28;6126945;23;20025;-84
2021/01/01 08:32:20;;;;;;;45.03;25.70;;;;;;;4.02;75.49;98918.56;6127154;23;20030;-84
2021/01/01 08:34:51;;;;;;;58.15;33.22;;;;;;;4.02;74.81;98912.50;6127195;23;20032;-84
2021/01/01 08:37:27;;;;;;;60.42;35.70;;;;;;;4.00;74.62;98916.94;6127003;23;20353;-84
2021/01/01 08:40:00;;;;;;;66.57;35.28;;;;;;;3.99;74.52;98920.44;6129743;23;20052;-84
2021/01/01 08:42:34;;;;;;;58.15;33.08;;;;;;;3.98;74.67;98923.97;6155939;23;20454;-84
2021/01/01 08:45:06;;;;;;;51.35;30.90;;;;;;;3.96;74.96;98924.03;6156410;23;20022;-84
2021/01/01 08:47:39;;;;;;;42.13;25.42;;;;;;;3.94;74.94;98920.66;6156456;23;20017;-84
2021/01/01 08:50:25;;;;;;;46.08;24.75;;;;;;;3.96;75.18;98933.63;6156302;23;20025;-84
2021/01/01 08:52:57;;;;;;;37.80;20.40;;;;;;;3.99;75.49;98934.31;6156182;23;20026;-84
2021/01/01 08:55:24;;;;;;;36.85;21.13;;;;;;;4.05;76.42;98930.59;6156480;23;20029;-84
2021/01/01 08:57:50;;;;;;;43.92;24.00;;;;;;;4.11;76.51;98937.31;6156265;23;20036;-84
2021/01/01 09:00:17;;;;;;;45.17;25.83;;;;;;;4.14;76.39;98938.00;6156176;23;20022;-84
2021/01/01 09:02:45;;;;;;;45.28;24.42;;;;;;;4.18;75.83;98941.31;6156362;23;20022;-84
2021/01/01 09:05:12;;;;;;;46.03;25.73;;;;;;;4.23;75.91;98944.56;6156609;23;20029;-83
2021/01/01 09:07:38;;;;;;;45.97;25.40;;;;;;;4.26;75.79;98947.03;6156334;23;20021;-83
2021/01/01 09:10:54;;;;;;;48.38;25.42;;;;;;;4.25;74.35;98947.09;6172045;23;20071;-84
2021/01/01 09:27:31;;;;;;;56.10;30.30;;;;;;;4.39;75.19;98956.94;6215793;22;20462;-86
2021/01/01 09:30:38;;;;;;;55.58;30.80;;;;;;;4.36;74.09;98964.88;6190160;23;20021;-87
2021/01/01 09:33:07;;;;;;;54.22;30.20;;;;;;;4.36;74.80;98964.88;6189842;23;20455;-87
2021/01/01 09:36:04;;;;;;;55.08;32.25;;;;;;;4.30;73.86;98976.44;6189859;23;20020;-88
2021/01/01 09:38:48;;;;;;;53.20;30.90;;;;;;;4.33;75.24;98975.44;6187169;23;20510;-87
2021/01/01 09:42:11;;;;;;;50.88;29.85;;;;;;;4.27;73.99;98973.94;6195145;23;20021;-88
2021/01/01 09:45:43;;;;;;;;;;;;;;;;;;;;;
2021/01/01 09:51:52;;;;;;;54.75;29.38;;;;;;;4.26;75.04;98980.91;6163854;23;20024;-88
2021/01/01 09:54:39;;;;;;;58.72;29.77;;;;;;;4.25;75.15;98979.22;6215589;23;20459;-88
2021/01/01 09:58:04;;;;;;;44.08;22.95;;;;;;;4.21;74.41;98976.81;6192025;23;20037;-87
2021/01/01 10:01:45;;;;;;;;;;;;;;;;;;;;;
2021/01/01 10:05:24;;;;;;;51.47;27.02;;;;;;;4.15;74.60;98983.16;6215885;23;20094;-88
2021/01/01 10:08:06;;;;;;;52.92;28.63;;;;;;;4.16;75.03;98988.28;6213619;23;20017;-87
2021/01/01 10:11:05;;;;;;;49.65;29.02;;;;;;;4.18;75.43;98983.00;6191908;23;20020;-86
2021/01/01 10:14:32;;;;;;;54.28;28.20;;;;;;;4.19;75.03;98989.06;6179481;23;20031;-87
2021/01/01 10:17:42;;;;;;;52.17;27.35;;;;;;;4.20;75.59;98981.19;6192969;23;20047;-87
2021/01/01 10:21:10;;;;;;;50.45;28.08;;;;;;;4.23;75.29;98996.66;6176407;23;20406;-87
2021/01/01 10:24:14;;;;;;;;;;;;;;;4.30;74.81;98990.28;6191069;23;20027;-88
2021/01/01 10:27:29;;;;;;;;;;;;;;;;;;;;;
2021/01/01 10:30:19;;;;;;;47.33;26.73;;;;;;;4.41;76.15;98997.63;6213395;23;20410;-87
2021/01/01 10:33:38;;;;;;;46.63;25.30;;;;;;;4.47;76.72;98998.28;6215882;23;20104;-87
2021/01/01 10:36:19;;;;;;;47.95;25.52;;;;;;;4.49;75.79;99002.50;6217864;23;20275;-87
2021/01/01 10:39:03;;;;;;;47.50;25.25;;;;;;;4.55;76.80;99004.84;6191732;23;20398;-87
2021/01/01 10:41:38;;;;;;;;;;;;;;;4.61;75.11;98987.25;6191771;23;20020;-87
2021/01/01 10:44:05;;;;;;;46.95;24.73;;;;;;;4.69;76.71;98999.03;6191479;23;19922;-87
2021/01/01 10:46:40;;;;;;;46.90;25.42;;;;;;;4.70;75.50;98989.44;6191562;23;20040;-87
2021/01/01 10:49:28;;;;;;;51.22;27.65;;;;;;;4.74;75.39;98990.16;6217990;23;20103;-87
2021/01/01 10:52:03;;;;;;;46.78;24.90;;;;;;;4.81;76.77;98988.94;6192421;23;20435;-88
2021/01/01 10:54:36;;;;;;;49.67;27.70;;;;;;;4.86;76.53;98988.75;6191279;23;20024;-87
2021/01/01 10:57:19;;;;;;;50.63;26.85;;;;;;;4.89;76.11;98988.59;6189550;23;20030;-87
2021/01/01 10:59:46;;;;;;;46.55;26.52;;;;;;;4.90;76.09;98987.69;6191164;23;20091;-87
2021/01/01 11:02:44;;;;;;;50.38;27.38;;;;;;;4.88;74.60;98986.91;6191886;23;20095;-87
2021/01/01 11:05:14;;;;;;;51.13;28.38;;;;;;;4.91;75.18;98985.03;6181044;23;20043;-87
2021/01/01 11:07:42;;;;;;;46.95;26.63;;;;;;;4.92;75.47;98985.84;6190960;23;20024;-87
2021/01/01 11:10:12;;;;;;;46.75;26.90;;;;;;;4.92;76.20;98989.31;6191297;23;20083;-88
2021/01/01 11:12:39;;;;;;;51.05;26.58;;;;;;;4.95;76.27;98993.53;6191039;23;20027;-88
2021/01/01 12:26:28;;;;;;;47.63;26.48;;;;;;;5.74;76.26;98973.28;6216657;23;20074;-87
2021/01/01 12:29:03;;;;;;;48.92;28.85;;;;;;;5.76;76.32;98971.44;6215824;23;20456;-87
2021/01/01 12:31:30;;;;;;;45.35;28.38;;;;;;;5.77;75.90;98972.28;6189690;23;20474;-88
2021/01/01 12:33:56;;;;;;;49.03;28.08;;;;;;;5.77;76.03;98972.28;6189872;23;20020;-88
2021/01/01 12:36:23;;;;;;;48.20;26.50;;;;;;;5.76;76.24;98979.28;6190033;23;20390;-87
2021/01/01 12:38:49;;;;;;;45.33;25.10;;;;;;;5.77;76.19;98978.34;6189226;23;20019;-88
2021/01/01 12:41:16;;;;;;;48.67;26.67;;;;;;;5.79;76.16;98979.13;6189513;23;20100;-87
2021/01/01 12:43:42;;;;;;;47.90;25.42;;;;;;;5.81;76.04;98976.44;6189703;23;20039;-88
2021/01/01 12:46:09;;;;;;;47.17;25.75;;;;;;;5.81;76.31;98985.13;6215601;23;20020;-87
2021/01/01 12:48:35;;;;;;;42.40;24.70;;;;;;;5.82;76.06;98980.72;6216145;23;20016;-87
2021/01/01 12:51:01;;;;;;;46.10;24.55;;;;;;;5.83;76.17;98979.81;6189401;23;20467;-87
2021/01/01 12:53:28;;;;;;;50.83;26.67;;;;;;;5.84;76.32;98986.72;6215605;23;20471;-88
2021/01/01 12:55:54;;;;;;;48.78;27.85;;;;;;;5.85;76.00;98980.59;6215819;23;20020;-87
2021/01/01 12:58:20;;;;;;;51.13;30.02;;;;;;;5.85;76.25;98984.03;6215934;23;20466;-87
2021/01/01 13:00:49;;;;;;;54.70;29.02;;;;;;;5.86;76.07;98987.50;6216317;23;20020;-86
2021/01/01 13:03:17;;;;;;;49.50;27.83;;;;;;;5.85;75.88;98980.59;6189731;23;20100;-88
2021/01/01 13:05:43;;;;;;;52.45;28.10;;;;;;;5.87;76.06;98989.19;6189906;23;20048;-87
2021/01/01 13:08:10;;;;;;;47.42;27.63;;;;;;;5.86;76.02;98988.34;6189544;23;20371;-87
2021/01/01 13:10:36;;;;;;;47.10;27.23;;;;;;;5.87;76.01;98990.03;6216037;23;20021;-87
2021/01/01 13:13:02;;;;;;;50.50;27.50;;;;;;;5.86;75.93;98985.72;6215867;23;20099;-87
2021/01/01 13:15:29;;;;;;;46.53;26.52;;;;;;;5.86;75.82;98988.34;6189765;23;20025;-87
2021/01/01 13:17:56;;;;;;;50.63;27.70;;;;;;;5.87;76.03;98992.63;6189360;23;20351;-87
2021/01/01 13:20:23;;;;;;;47.40;26.67;;;;;;;5.87;76.19;98994.44;6215599;23;20024;-87
2021/01/01 13:22:49;;;;;;;46.72;26.80;;;;;;;5.89;76.38;98999.53;6215491;23;20039;-88
2021/01/01 13:25:20;;;;;;;55.33;27.50;;;;;;;5.89;76.05;98994.31;6189610;23;20455;-86
2021/01/01 13:27:47;;;;;;;51.25;27.02;;;;;;;5.89;75.94;98995.19;6189731;23;20396;-89
2021/01/01 13:30:17;;;;;;;46.25;26.73;;;;;;;5.86;75.45;98996.19;6189326;23;20017;-88
2021/01/01 13:33:06;;;;;;;49.55;27.13;;;;;;;5.86;75.34;98998.78;6189262;23;20074;-86
2021/01/01 13:35:47;;;;;;;48.15;26.48;;;;;;;5.91;76.15;99003.75;6192474;23;20020;-87
2021/01/01 13:38:13;;;;;;;47.58;26.02;;;;;;;5.93;76.54;99012.38;6215237;23;20017;-86
2021/01/01 13:40:43;;;;;;;49.10;26.25;;;;;;;5.98;76.74;99009.56;6189701;23;20483;-86
2021/01/01 13:43:17;;;;;;;44.55;26.40;;;;;;;6.01;76.90;99006.78;6188958;23;20017;-88
2021/01/01 13:45:43;;;;;;;51.78;28.00;;;;;;;6.05;76.76;99007.50;6216490;23;20020;-86
2021/01/01 13:48:16;;;;;;;49.40;28.17;;;;;;;6.06;75.96;99010.03;6189304;23;20100;-86
2021/01/01 13:50:47;;;;;;;51.70;29.30;;;;;;;6.11;76.18;99015.88;6189515;23;20399;-86
2021/01/01 13:53:24;;;;;;;53.20;28.13;;;;;;;6.11;75.08;99010.66;6190277;23;20020;-86
2021/01/01 13:55:54;;;;;;;52.97;27.63;;;;;;;6.16;75.97;99012.19;6190737;23;20020;-85
2021/01/01 13:58:26;;;;;;;50.47;27.15;;;;;;;6.16;75.94;99018.25;6191445;23;20028;-85
2021/01/01 14:00:52;;;;;;;45.20;26.85;;;;;;;6.16;76.09;99018.25;6218067;23;20347;-86